메인 페이지
METAR-TAF:

METAR-TAF

공항 :

톨마초보 국제공항

노보시비르스크, 러시아

위도: 55-01N, 경도: 082-38E, 고도: 111m

현재 날씨관측

예보는 36분 전, 04:30시(UTC)에 발표되었습니다.
남서12kt
온도 -8°C
습도 85%
기압 1027 hPa
시정: 0550m
고도 700ft 상공 흐림, 적란운.
강한소낙눈

METAR: UNNT 150430Z 23006MPS 0750 0550N R25/0700D +SHSN OVC007CB M08/M10 Q1027 R25/490245 R16/490540 NOSIG RMK QFE760/1013

시각: 12:06 (05:06 UTC)

예보

예보는 27분 전, 04:39시(UTC)에 발표되었습니다.
예보 대상 시간: 15일 04시부터 16일 03시까지 (UTC)
서남서17kt, 순간 최대 풍속 29kt
시정: 0800m
고도 800ft 상공 흐림
강한눈, 날린눈
일시적
15일 04시부터 15일 09시까지 (UTC)
시정: 0350m
고도 500ft 상공 구름 많음
고도 1000ft 상공 흐림, 적란운.
강한소낙눈, 날린눈
15일 0900시부터 (UTC)
서남서10kt, 순간 최대 풍속 19kt
시정: 4000m
고도 1100ft 상공 구름 많음, 적란운.
약한소낙눈
일시적
15일 09시부터 15일 21시까지 (UTC)
서남서19kt, 순간 최대 풍속 29kt
시정: 0600m
고도 500ft 상공 구름 많음
고도 1100ft 상공 구름 많음, 적란운.
강한소낙눈, 날린눈
전환 중
15일 21시부터 15일 22시까지 (UTC)
북서10kt, 순간 최대 풍속 21kt

TAF: UNNT 150439Z 1504/1603 24009G15MPS 0800 +SN BLSN OVC008 TEMPO 1504/1509 0350 +SHSN BLSN BKN005 OVC010CB FM150900 24005G10MPS 4000 -SHSN BKN011CB TEMPO 1509/1521 25010G15MPS 0600 +SHSN BLSN BKN005 BKN011CB BECMG 1521/1522 31005G11MPS

4,000개 이상의 공항 관측 자료 및 예보 (METAR 및 TAF 보고).

지도상에서 검색 가능한 기상관측소가 노란 점과 빨간 점으로 표시되어 있습니다.

기상관측소 명을 보려면 표시 위로 마우스를 이동하세요.

날씨 관측과 예보를 보려면 클릭하세요.

지도 변경 : 확대하려면 엑스 표시가 있는 녹색 버튼, 축소하려면 빼기 표시가 있는 녹색 버튼, 다음 페이지의 지도를 보려면 녹색 화살표를 클릭하세요.


METAR-TAF: